createdAt,value
2019-03-03T01:57:59.934Z,9.5
2019-03-03T02:19:57.900Z,9.6
2019-03-03T03:25:36.613Z,10.0
2019-03-03T03:37:24.675Z,10.1
2019-03-03T03:48:34.762Z,10.1
2019-03-03T04:00:22.225Z,10.1
2019-03-03T04:12:16.502Z,10.1
2019-03-03T05:15:43.050Z,9.6
2019-03-03T05:29:24.927Z,9.5
2019-03-03T05:41:45.856Z,9.4
2019-03-03T05:55:19.990Z,9.4
2019-03-03T06:07:37.560Z,9.3
2019-03-03T06:19:38.582Z,9.3
2019-03-03T06:33:21.638Z,9.2
2019-03-03T07:01:43.146Z,9.2
2019-03-03T07:15:55.288Z,9.1
2019-03-03T08:15:31.946Z,9.3
2019-03-03T08:27:52.368Z,9.4
2019-03-03T08:40:09.173Z,9.4
2019-03-03T08:52:34.771Z,9.5
2019-03-03T09:04:48.314Z,9.6
2019-03-03T09:18:05.652Z,9.7
2019-03-03T09:32:45.250Z,9.7
2019-03-03T09:46:02.839Z,9.8
2019-03-03T11:46:35.244Z,10.8
2019-03-03T11:56:49.704Z,10.7
2019-03-03T12:07:41.080Z,11.0
2019-03-03T12:18:41.600Z,11.2
2019-03-03T12:29:40.044Z,11.3
2019-03-03T12:43:12.548Z,11.4
2019-03-03T12:59:06.191Z,11.6
2019-03-03T13:10:14.567Z,11.8
2019-03-03T13:23:05.920Z,11.8
2019-03-03T13:34:20.272Z,11.9
2019-03-03T13:45:22.919Z,11.9
2019-03-03T13:56:28.921Z,11.9
2019-03-03T14:07:39.427Z,11.8
2019-03-03T14:32:19.378Z,11.7
2019-03-03T14:43:26.754Z,11.6
2019-03-03T15:07:57.799Z,11.4
2019-03-03T15:18:12.852Z,11.4
2019-03-03T15:28:26.888Z,11.4
2019-03-03T15:40:37.592Z,11.3
2019-03-03T15:50:58.086Z,11.2
2019-03-03T16:13:51.022Z,11.1
2019-03-03T16:25:53.538Z,11.1
2019-03-03T16:37:03.935Z,11.1
2019-03-03T16:48:24.762Z,11.1
2019-03-03T17:01:15.472Z,11.1
2019-03-03T17:42:52.515Z,10.9
2019-03-03T17:53:41.335Z,10.9
2019-03-03T18:04:54.465Z,11.0
2019-03-03T18:17:14.192Z,10.9
2019-03-03T18:29:03.726Z,10.9
2019-03-03T18:39:57.314Z,10.9
2019-03-03T18:51:38.554Z,10.9
2019-03-03T19:02:43.805Z,10.9
2019-03-03T19:13:21.928Z,10.9
2019-03-03T19:24:13.174Z,10.8
2019-03-03T19:34:42.507Z,10.8
2019-03-03T19:45:22.124Z,10.8
2019-03-03T19:56:00.265Z,10.7
2019-03-03T20:07:23.401Z,10.8
2019-03-03T20:18:06.669Z,10.8
2019-03-03T20:28:25.591Z,10.8
2019-03-03T20:38:55.683Z,10.9
2019-03-03T20:49:28.491Z,10.9
2019-03-03T21:00:03.109Z,10.9
2019-03-03T21:10:46.044Z,11.0
2019-03-03T21:21:13.341Z,11.1
2019-03-03T21:31:46.749Z,11.1
2019-03-03T21:42:58.492Z,11.2
2019-03-03T21:53:38.359Z,11.2
2019-03-03T22:04:28.947Z,11.2
2019-03-03T22:14:58.277Z,11.2
2019-03-03T22:25:23.222Z,11.2
2019-03-03T22:36:13.132Z,11.2
2019-03-03T22:47:08.932Z,11.2
2019-03-03T22:58:18.019Z,11.3
2019-03-03T23:08:35.021Z,11.3
2019-03-03T23:18:48.961Z,11.4
2019-03-03T23:29:21.004Z,11.4
2019-03-03T23:39:40.123Z,11.5
